sensor_id;sensor_type;location;lat;lon;timestamp;P1;durP1;ratioP1;P2;durP2;ratioP2
10469;SDS011;5282;47.052;15.458;2023-05-07T00:01:33;8.07;;;7.40;;
10469;SDS011;5282;47.052;15.458;2023-05-07T00:04:00;7.70;;;7.27;;
10469;SDS011;5282;47.052;15.458;2023-05-07T00:06:27;6.93;;;6.63;;
10469;SDS011;5282;47.052;15.458;2023-05-07T00:08:54;6.80;;;6.50;;
10469;SDS011;5282;47.052;15.458;2023-05-07T00:11:22;6.83;;;6.53;;
10469;SDS011;5282;47.052;15.458;2023-05-07T00:13:50;7.07;;;6.77;;
10469;SDS011;5282;47.052;15.458;2023-05-07T00:16:17;6.93;;;6.63;;
10469;SDS011;5282;47.052;15.458;2023-05-07T00:18:44;7.27;;;6.83;;
10469;SDS011;5282;47.052;15.458;2023-05-07T00:21:13;6.53;;;6.23;;
10469;SDS011;5282;47.052;15.458;2023-05-07T00:23:40;5.90;;;5.70;;
10469;SDS011;5282;47.052;15.458;2023-05-07T00:26:07;6.13;;;5.90;;
10469;SDS011;5282;47.052;15.458;2023-05-07T00:28:34;6.77;;;6.47;;
10469;SDS011;5282;47.052;15.458;2023-05-07T00:31:02;6.00;;;5.80;;
10469;SDS011;5282;47.052;15.458;2023-05-07T00:33:29;7.37;;;6.97;;
10469;SDS011;5282;47.052;15.458;2023-05-07T00:35:55;7.53;;;7.17;;
10469;SDS011;5282;47.052;15.458;2023-05-07T00:38:22;8.33;;;7.77;;
10469;SDS011;5282;47.052;15.458;2023-05-07T00:40:49;8.10;;;7.60;;
10469;SDS011;5282;47.052;15.458;2023-05-07T00:43:16;8.30;;;7.80;;
10469;SDS011;5282;47.052;15.458;2023-05-07T00:45:43;6.97;;;6.67;;
10469;SDS011;5282;47.052;15.458;2023-05-07T00:48:12;7.80;;;7.40;;
10469;SDS011;5282;47.052;15.458;2023-05-07T00:50:42;7.47;;;7.03;;
10469;SDS011;5282;47.052;15.458;2023-05-07T00:53:09;7.43;;;6.93;;
10469;SDS011;5282;47.052;15.458;2023-05-07T00:55:36;6.80;;;6.50;;
10469;SDS011;5282;47.052;15.458;2023-05-07T00:58:03;7.17;;;6.77;;
10469;SDS011;5282;47.052;15.458;2023-05-07T01:00:30;7.30;;;6.90;;
10469;SDS011;5282;47.052;15.458;2023-05-07T01:02:58;7.17;;;6.67;;
10469;SDS011;5282;47.052;15.458;2023-05-07T01:05:29;6.27;;;6.00;;
10469;SDS011;5282;47.052;15.458;2023-05-07T01:07:58;6.97;;;6.67;;
10469;SDS011;5282;47.052;15.458;2023-05-07T01:10:30;7.23;;;6.73;;
10469;SDS011;5282;47.052;15.458;2023-05-07T01:12:57;6.47;;;6.27;;
10469;SDS011;5282;47.052;15.458;2023-05-07T01:15:25;6.60;;;6.27;;
10469;SDS011;5282;47.052;15.458;2023-05-07T01:17:52;5.90;;;5.60;;
10469;SDS011;5282;47.052;15.458;2023-05-07T01:20:19;5.63;;;5.43;;
10469;SDS011;5282;47.052;15.458;2023-05-07T01:22:48;6.13;;;5.83;;
10469;SDS011;5282;47.052;15.458;2023-05-07T01:25:15;6.43;;;6.13;;
10469;SDS011;5282;47.052;15.458;2023-05-07T01:27:42;5.50;;;5.30;;
10469;SDS011;5282;47.052;15.458;2023-05-07T01:30:10;5.60;;;5.40;;
10469;SDS011;5282;47.052;15.458;2023-05-07T01:32:39;6.40;;;6.10;;
10469;SDS011;5282;47.052;15.458;2023-05-07T01:35:10;4.63;;;4.43;;
10469;SDS011;5282;47.052;15.458;2023-05-07T01:37:38;5.07;;;4.87;;
10469;SDS011;5282;47.052;15.458;2023-05-07T01:40:08;4.37;;;4.20;;
10469;SDS011;5282;47.052;15.458;2023-05-07T01:42:35;4.23;;;4.03;;
10469;SDS011;5282;47.052;15.458;2023-05-07T01:45:03;3.93;;;3.83;;
10469;SDS011;5282;47.052;15.458;2023-05-07T01:47:30;3.90;;;3.80;;
10469;SDS011;5282;47.052;15.458;2023-05-07T01:50:16;4.30;;;4.00;;
10469;SDS011;5282;47.052;15.458;2023-05-07T01:52:51;3.40;;;3.30;;
10469;SDS011;5282;47.052;15.458;2023-05-07T01:55:22;3.67;;;3.57;;
10469;SDS011;5282;47.052;15.458;2023-05-07T01:57:49;3.90;;;3.80;;
10469;SDS011;5282;47.052;15.458;2023-05-07T02:00:17;4.00;;;3.90;;
10469;SDS011;5282;47.052;15.458;2023-05-07T02:02:44;4.30;;;4.10;;
10469;SDS011;5282;47.052;15.458;2023-05-07T02:05:11;4.20;;;4.10;;
10469;SDS011;5282;47.052;15.458;2023-05-07T02:07:39;4.37;;;4.17;;
10469;SDS011;5282;47.052;15.458;2023-05-07T02:10:06;4.30;;;4.10;;
10469;SDS011;5282;47.052;15.458;2023-05-07T02:12:35;4.03;;;3.83;;
10469;SDS011;5282;47.052;15.458;2023-05-07T02:15:01;4.27;;;4.17;;
10469;SDS011;5282;47.052;15.458;2023-05-07T02:17:29;4.23;;;4.00;;
10469;SDS011;5282;47.052;15.458;2023-05-07T02:19:57;4.20;;;4.10;;
10469;SDS011;5282;47.052;15.458;2023-05-07T02:22:24;4.07;;;3.87;;
10469;SDS011;5282;47.052;15.458;2023-05-07T02:24:51;4.40;;;4.20;;
10469;SDS011;5282;47.052;15.458;2023-05-07T02:27:18;4.40;;;4.10;;
10469;SDS011;5282;47.052;15.458;2023-05-07T02:29:48;4.27;;;4.17;;
10469;SDS011;5282;47.052;15.458;2023-05-07T02:32:15;4.47;;;4.27;;
10469;SDS011;5282;47.052;15.458;2023-05-07T02:34:42;4.47;;;4.17;;
10469;SDS011;5282;47.052;15.458;2023-05-07T02:37:09;3.67;;;3.57;;
10469;SDS011;5282;47.052;15.458;2023-05-07T02:39:36;4.20;;;4.00;;
10469;SDS011;5282;47.052;15.458;2023-05-07T02:42:03;4.20;;;4.10;;
10469;SDS011;5282;47.052;15.458;2023-05-07T02:44:29;3.73;;;3.63;;
10469;SDS011;5282;47.052;15.458;2023-05-07T02:46:58;4.03;;;3.93;;
10469;SDS011;5282;47.052;15.458;2023-05-07T02:49:25;4.03;;;3.90;;
10469;SDS011;5282;47.052;15.458;2023-05-07T02:51:51;4.13;;;3.93;;
10469;SDS011;5282;47.052;15.458;2023-05-07T02:54:18;3.97;;;3.80;;
10469;SDS011;5282;47.052;15.458;2023-05-07T02:56:45;4.57;;;4.37;;
10469;SDS011;5282;47.052;15.458;2023-05-07T02:59:12;4.33;;;4.13;;
10469;SDS011;5282;47.052;15.458;2023-05-07T03:01:38;4.10;;;4.00;;
10469;SDS011;5282;47.052;15.458;2023-05-07T03:04:08;4.23;;;4.07;;
10469;SDS011;5282;47.052;15.458;2023-05-07T03:06:35;3.83;;;3.63;;
10469;SDS011;5282;47.052;15.458;2023-05-07T03:09:01;4.27;;;4.07;;
10469;SDS011;5282;47.052;15.458;2023-05-07T03:11:28;4.30;;;4.07;;
10469;SDS011;5282;47.052;15.458;2023-05-07T03:13:55;4.10;;;4.00;;
10469;SDS011;5282;47.052;15.458;2023-05-07T03:16:22;4.10;;;4.00;;
10469;SDS011;5282;47.052;15.458;2023-05-07T03:18:49;3.93;;;3.60;;
10469;SDS011;5282;47.052;15.458;2023-05-07T03:21:17;4.40;;;4.30;;
10469;SDS011;5282;47.052;15.458;2023-05-07T03:23:44;4.10;;;3.80;;
10469;SDS011;5282;47.052;15.458;2023-05-07T03:26:11;4.23;;;4.03;;
10469;SDS011;5282;47.052;15.458;2023-05-07T03:28:38;4.47;;;4.17;;
10469;SDS011;5282;47.052;15.458;2023-05-07T03:31:04;3.80;;;3.60;;
10469;SDS011;5282;47.052;15.458;2023-05-07T03:33:32;4.17;;;3.97;;
10469;SDS011;5282;47.052;15.458;2023-05-07T03:35:59;4.50;;;4.20;;
10469;SDS011;5282;47.052;15.458;2023-05-07T03:38:27;4.03;;;3.80;;
10469;SDS011;5282;47.052;15.458;2023-05-07T03:40:54;4.30;;;4.00;;
10469;SDS011;5282;47.052;15.458;2023-05-07T03:43:21;3.97;;;3.87;;
10469;SDS011;5282;47.052;15.458;2023-05-07T03:45:48;4.27;;;4.10;;
10469;SDS011;5282;47.052;15.458;2023-05-07T03:48:17;4.30;;;4.10;;
10469;SDS011;5282;47.052;15.458;2023-05-07T03:50:43;4.23;;;4.13;;
10469;SDS011;5282;47.052;15.458;2023-05-07T03:53:10;4.40;;;4.20;;
10469;SDS011;5282;47.052;15.458;2023-05-07T03:55:41;4.10;;;3.90;;
10469;SDS011;5282;47.052;15.458;2023-05-07T03:58:07;4.67;;;4.47;;
10469;SDS011;5282;47.052;15.458;2023-05-07T04:00:34;4.80;;;4.50;;
10469;SDS011;5282;47.052;15.458;2023-05-07T04:03:03;4.40;;;4.20;;
10469;SDS011;5282;47.052;15.458;2023-05-07T04:05:30;4.43;;;4.23;;
10469;SDS011;5282;47.052;15.458;2023-05-07T04:07:57;4.87;;;4.63;;
10469;SDS011;5282;47.052;15.458;2023-05-07T04:10:24;4.23;;;4.03;;
10469;SDS011;5282;47.052;15.458;2023-05-07T04:12:54;4.63;;;4.33;;
10469;SDS011;5282;47.052;15.458;2023-05-07T04:15:24;4.30;;;4.20;;
10469;SDS011;5282;47.052;15.458;2023-05-07T04:17:51;4.80;;;4.50;;
10469;SDS011;5282;47.052;15.458;2023-05-07T04:20:18;4.40;;;4.20;;
10469;SDS011;5282;47.052;15.458;2023-05-07T04:22:44;4.57;;;4.37;;
10469;SDS011;5282;47.052;15.458;2023-05-07T04:25:11;4.40;;;4.10;;
10469;SDS011;5282;47.052;15.458;2023-05-07T04:27:38;6.17;;;4.47;;
10469;SDS011;5282;47.052;15.458;2023-05-07T04:30:07;4.00;;;3.90;;
10469;SDS011;5282;47.052;15.458;2023-05-07T04:32:34;4.30;;;4.00;;
10469;SDS011;5282;47.052;15.458;2023-05-07T04:35:02;4.00;;;3.90;;
10469;SDS011;5282;47.052;15.458;2023-05-07T04:37:31;3.80;;;3.70;;
10469;SDS011;5282;47.052;15.458;2023-05-07T04:39:58;4.20;;;4.10;;
10469;SDS011;5282;47.052;15.458;2023-05-07T04:42:25;4.30;;;4.10;;
10469;SDS011;5282;47.052;15.458;2023-05-07T04:44:52;4.23;;;4.03;;
10469;SDS011;5282;47.052;15.458;2023-05-07T04:47:23;4.73;;;4.53;;
10469;SDS011;5282;47.052;15.458;2023-05-07T04:49:50;4.30;;;4.20;;
10469;SDS011;5282;47.052;15.458;2023-05-07T04:52:17;4.57;;;4.23;;
10469;SDS011;5282;47.052;15.458;2023-05-07T04:54:46;4.77;;;4.47;;
10469;SDS011;5282;47.052;15.458;2023-05-07T04:57:13;4.70;;;4.50;;
10469;SDS011;5282;47.052;15.458;2023-05-07T04:59:42;4.40;;;4.30;;
10469;SDS011;5282;47.052;15.458;2023-05-07T05:02:09;4.50;;;4.30;;
10469;SDS011;5282;47.052;15.458;2023-05-07T05:04:38;4.20;;;4.00;;
10469;SDS011;5282;47.052;15.458;2023-05-07T05:07:04;4.47;;;4.10;;
10469;SDS011;5282;47.052;15.458;2023-05-07T05:09:32;4.23;;;4.03;;
10469;SDS011;5282;47.052;15.458;2023-05-07T05:11:59;3.97;;;3.77;;
10469;SDS011;5282;47.052;15.458;2023-05-07T05:14:26;4.27;;;4.13;;
10469;SDS011;5282;47.052;15.458;2023-05-07T05:16:53;3.97;;;3.77;;
10469;SDS011;5282;47.052;15.458;2023-05-07T05:19:20;4.07;;;3.77;;
10469;SDS011;5282;47.052;15.458;2023-05-07T05:21:48;3.73;;;3.53;;
10469;SDS011;5282;47.052;15.458;2023-05-07T05:24:15;3.97;;;3.77;;
10469;SDS011;5282;47.052;15.458;2023-05-07T05:26:42;3.97;;;3.87;;
10469;SDS011;5282;47.052;15.458;2023-05-07T05:29:09;3.83;;;3.67;;
10469;SDS011;5282;47.052;15.458;2023-05-07T05:31:35;3.70;;;3.50;;
10469;SDS011;5282;47.052;15.458;2023-05-07T05:34:02;3.77;;;3.67;;
10469;SDS011;5282;47.052;15.458;2023-05-07T05:36:29;4.13;;;3.93;;
10469;SDS011;5282;47.052;15.458;2023-05-07T05:38:58;3.87;;;3.77;;
10469;SDS011;5282;47.052;15.458;2023-05-07T05:41:25;3.53;;;3.43;;
10469;SDS011;5282;47.052;15.458;2023-05-07T05:43:54;3.63;;;3.53;;
10469;SDS011;5282;47.052;15.458;2023-05-07T05:46:21;3.07;;;2.97;;
10469;SDS011;5282;47.052;15.458;2023-05-07T05:48:50;3.80;;;3.60;;
10469;SDS011;5282;47.052;15.458;2023-05-07T05:51:17;3.70;;;3.50;;
10469;SDS011;5282;47.052;15.458;2023-05-07T05:53:43;3.77;;;3.60;;
10469;SDS011;5282;47.052;15.458;2023-05-07T05:56:11;3.33;;;3.13;;
10469;SDS011;5282;47.052;15.458;2023-05-07T05:58:38;3.53;;;3.33;;
10469;SDS011;5282;47.052;15.458;2023-05-07T06:01:08;3.40;;;3.13;;
10469;SDS011;5282;47.052;15.458;2023-05-07T06:03:35;3.10;;;3.00;;
10469;SDS011;5282;47.052;15.458;2023-05-07T06:06:02;3.20;;;3.00;;
10469;SDS011;5282;47.052;15.458;2023-05-07T06:08:29;3.07;;;2.97;;
10469;SDS011;5282;47.052;15.458;2023-05-07T06:10:56;2.80;;;2.70;;
10469;SDS011;5282;47.052;15.458;2023-05-07T06:13:25;2.87;;;2.77;;
10469;SDS011;5282;47.052;15.458;2023-05-07T06:15:52;3.33;;;2.60;;
10469;SDS011;5282;47.052;15.458;2023-05-07T06:18:19;3.03;;;2.83;;
10469;SDS011;5282;47.052;15.458;2023-05-07T06:20:48;2.70;;;2.60;;
10469;SDS011;5282;47.052;15.458;2023-05-07T06:23:15;2.80;;;2.70;;
10469;SDS011;5282;47.052;15.458;2023-05-07T06:25:42;2.60;;;2.50;;
10469;SDS011;5282;47.052;15.458;2023-05-07T06:28:12;2.60;;;2.50;;
10469;SDS011;5282;47.052;15.458;2023-05-07T06:30:40;3.20;;;2.87;;
10469;SDS011;5282;47.052;15.458;2023-05-07T06:33:07;2.90;;;2.80;;
10469;SDS011;5282;47.052;15.458;2023-05-07T06:35:34;2.80;;;2.70;;
10469;SDS011;5282;47.052;15.458;2023-05-07T06:38:00;3.23;;;3.03;;
10469;SDS011;5282;47.052;15.458;2023-05-07T06:40:27;2.77;;;2.67;;
10469;SDS011;5282;47.052;15.458;2023-05-07T06:42:54;2.63;;;2.53;;
10469;SDS011;5282;47.052;15.458;2023-05-07T06:45:21;3.03;;;2.93;;
10469;SDS011;5282;47.052;15.458;2023-05-07T06:47:50;2.77;;;2.63;;
10469;SDS011;5282;47.052;15.458;2023-05-07T06:50:17;3.10;;;3.00;;
10469;SDS011;5282;47.052;15.458;2023-05-07T06:52:44;2.97;;;2.87;;
10469;SDS011;5282;47.052;15.458;2023-05-07T06:55:11;2.80;;;2.70;;
10469;SDS011;5282;47.052;15.458;2023-05-07T06:57:38;3.00;;;2.90;;
10469;SDS011;5282;47.052;15.458;2023-05-07T07:00:05;2.87;;;2.77;;
10469;SDS011;5282;47.052;15.458;2023-05-07T07:02:34;2.80;;;2.70;;
10469;SDS011;5282;47.052;15.458;2023-05-07T07:05:02;2.73;;;2.63;;
10469;SDS011;5282;47.052;15.458;2023-05-07T07:07:29;3.43;;;3.20;;
10469;SDS011;5282;47.052;15.458;2023-05-07T07:09:56;2.80;;;2.60;;
10469;SDS011;5282;47.052;15.458;2023-05-07T07:12:22;2.90;;;2.70;;
10469;SDS011;5282;47.052;15.458;2023-05-07T07:14:51;3.10;;;3.00;;
10469;SDS011;5282;47.052;15.458;2023-05-07T07:17:18;3.00;;;2.90;;
10469;SDS011;5282;47.052;15.458;2023-05-07T07:19:53;3.17;;;3.07;;
10469;SDS011;5282;47.052;15.458;2023-05-07T07:22:40;3.00;;;2.90;;
10469;SDS011;5282;47.052;15.458;2023-05-07T07:25:25;3.20;;;3.10;;
10469;SDS011;5282;47.052;15.458;2023-05-07T07:28:11;3.43;;;3.27;;
10469;SDS011;5282;47.052;15.458;2023-05-07T07:30:57;3.40;;;3.10;;
10469;SDS011;5282;47.052;15.458;2023-05-07T07:33:23;3.00;;;2.90;;
10469;SDS011;5282;47.052;15.458;2023-05-07T07:35:50;3.33;;;3.23;;
10469;SDS011;5282;47.052;15.458;2023-05-07T07:38:18;3.50;;;3.40;;
10469;SDS011;5282;47.052;15.458;2023-05-07T07:41:04;3.30;;;3.10;;
10469;SDS011;5282;47.052;15.458;2023-05-07T07:43:31;3.67;;;3.57;;
10469;SDS011;5282;47.052;15.458;2023-05-07T07:46:04;4.00;;;3.70;;
10469;SDS011;5282;47.052;15.458;2023-05-07T07:48:31;3.73;;;3.63;;
10469;SDS011;5282;47.052;15.458;2023-05-07T07:50:58;3.87;;;3.67;;
10469;SDS011;5282;47.052;15.458;2023-05-07T07:53:26;3.67;;;3.57;;
10469;SDS011;5282;47.052;15.458;2023-05-07T07:55:53;3.53;;;3.43;;
10469;SDS011;5282;47.052;15.458;2023-05-07T07:58:20;3.60;;;3.50;;
10469;SDS011;5282;47.052;15.458;2023-05-07T08:00:47;3.43;;;3.20;;
10469;SDS011;5282;47.052;15.458;2023-05-07T08:03:14;3.30;;;3.20;;
10469;SDS011;5282;47.052;15.458;2023-05-07T08:05:43;3.83;;;3.63;;
10469;SDS011;5282;47.052;15.458;2023-05-07T08:08:09;4.47;;;4.10;;
10469;SDS011;5282;47.052;15.458;2023-05-07T08:10:38;3.90;;;3.50;;
10469;SDS011;5282;47.052;15.458;2023-05-07T08:13:05;6.50;;;4.60;;
10469;SDS011;5282;47.052;15.458;2023-05-07T08:15:32;3.83;;;3.63;;
10469;SDS011;5282;47.052;15.458;2023-05-07T08:17:58;3.73;;;3.63;;
10469;SDS011;5282;47.052;15.458;2023-05-07T08:20:26;3.90;;;3.70;;
10469;SDS011;5282;47.052;15.458;2023-05-07T08:22:53;3.70;;;3.60;;
10469;SDS011;5282;47.052;15.458;2023-05-07T08:25:20;3.50;;;3.40;;
10469;SDS011;5282;47.052;15.458;2023-05-07T08:27:48;3.73;;;3.63;;
10469;SDS011;5282;47.052;15.458;2023-05-07T08:30:15;3.67;;;3.40;;
10469;SDS011;5282;47.052;15.458;2023-05-07T08:32:41;3.20;;;3.10;;
10469;SDS011;5282;47.052;15.458;2023-05-07T08:35:08;3.57;;;3.47;;
10469;SDS011;5282;47.052;15.458;2023-05-07T08:37:35;3.30;;;3.20;;
10469;SDS011;5282;47.052;15.458;2023-05-07T08:40:02;3.53;;;3.43;;
10469;SDS011;5282;47.052;15.458;2023-05-07T08:42:30;4.93;;;4.03;;
10469;SDS011;5282;47.052;15.458;2023-05-07T08:44:59;4.13;;;3.93;;
10469;SDS011;5282;47.052;15.458;2023-05-07T08:47:28;3.73;;;3.53;;
10469;SDS011;5282;47.052;15.458;2023-05-07T08:50:00;3.50;;;3.40;;
10469;SDS011;5282;47.052;15.458;2023-05-07T08:52:28;4.47;;;3.97;;
10469;SDS011;5282;47.052;15.458;2023-05-07T08:54:55;3.50;;;3.30;;
10469;SDS011;5282;47.052;15.458;2023-05-07T08:57:22;3.73;;;3.50;;
10469;SDS011;5282;47.052;15.458;2023-05-07T08:59:49;3.40;;;3.30;;
10469;SDS011;5282;47.052;15.458;2023-05-07T09:02:17;3.20;;;3.10;;
10469;SDS011;5282;47.052;15.458;2023-05-07T09:04:44;3.07;;;2.97;;
10469;SDS011;5282;47.052;15.458;2023-05-07T09:07:11;3.57;;;3.43;;
10469;SDS011;5282;47.052;15.458;2023-05-07T09:09:38;3.63;;;3.10;;
10469;SDS011;5282;47.052;15.458;2023-05-07T09:12:05;3.63;;;3.53;;
10469;SDS011;5282;47.052;15.458;2023-05-07T09:14:33;3.30;;;3.20;;
10469;SDS011;5282;47.052;15.458;2023-05-07T09:17:00;3.37;;;3.27;;
10469;SDS011;5282;47.052;15.458;2023-05-07T09:19:28;3.77;;;3.57;;
10469;SDS011;5282;47.052;15.458;2023-05-07T09:21:59;3.77;;;3.43;;
10469;SDS011;5282;47.052;15.458;2023-05-07T09:24:29;7.73;;;3.37;;
10469;SDS011;5282;47.052;15.458;2023-05-07T09:27:00;3.00;;;2.90;;
10469;SDS011;5282;47.052;15.458;2023-05-07T09:29:27;3.03;;;2.93;;
10469;SDS011;5282;47.052;15.458;2023-05-07T09:31:55;3.13;;;3.03;;
10469;SDS011;5282;47.052;15.458;2023-05-07T09:34:22;4.13;;;3.30;;
10469;SDS011;5282;47.052;15.458;2023-05-07T09:36:50;3.60;;;3.43;;
10469;SDS011;5282;47.052;15.458;2023-05-07T09:39:17;3.23;;;3.13;;
10469;SDS011;5282;47.052;15.458;2023-05-07T09:41:44;2.83;;;2.73;;
10469;SDS011;5282;47.052;15.458;2023-05-07T09:44:12;3.00;;;2.90;;
10469;SDS011;5282;47.052;15.458;2023-05-07T09:46:41;3.10;;;3.00;;
10469;SDS011;5282;47.052;15.458;2023-05-07T09:49:10;3.20;;;3.10;;
10469;SDS011;5282;47.052;15.458;2023-05-07T09:51:43;2.93;;;2.83;;
10469;SDS011;5282;47.052;15.458;2023-05-07T09:54:15;3.20;;;3.00;;
10469;SDS011;5282;47.052;15.458;2023-05-07T09:56:42;3.43;;;3.33;;
10469;SDS011;5282;47.052;15.458;2023-05-07T09:59:14;3.13;;;3.00;;
10469;SDS011;5282;47.052;15.458;2023-05-07T10:01:42;3.20;;;3.10;;
10469;SDS011;5282;47.052;15.458;2023-05-07T10:04:10;3.67;;;3.37;;
10469;SDS011;5282;47.052;15.458;2023-05-07T10:06:37;3.17;;;3.03;;
10469;SDS011;5282;47.052;15.458;2023-05-07T10:09:05;3.10;;;3.00;;
10469;SDS011;5282;47.052;15.458;2023-05-07T10:11:33;3.30;;;3.20;;
10469;SDS011;5282;47.052;15.458;2023-05-07T10:14:01;3.27;;;3.17;;
10469;SDS011;5282;47.052;15.458;2023-05-07T10:16:31;3.20;;;3.10;;
10469;SDS011;5282;47.052;15.458;2023-05-07T10:19:02;3.07;;;2.97;;
10469;SDS011;5282;47.052;15.458;2023-05-07T10:21:32;3.47;;;3.33;;
10469;SDS011;5282;47.052;15.458;2023-05-07T10:24:04;3.60;;;3.30;;
10469;SDS011;5282;47.052;15.458;2023-05-07T10:26:35;3.10;;;3.00;;
10469;SDS011;5282;47.052;15.458;2023-05-07T10:29:04;2.47;;;2.47;;
10469;SDS011;5282;47.052;15.458;2023-05-07T10:31:38;2.77;;;2.67;;
10469;SDS011;5282;47.052;15.458;2023-05-07T10:34:24;2.53;;;2.53;;
10469;SDS011;5282;47.052;15.458;2023-05-07T10:36:54;2.70;;;2.60;;
10469;SDS011;5282;47.052;15.458;2023-05-07T10:39:22;2.90;;;2.80;;
10469;SDS011;5282;47.052;15.458;2023-05-07T10:41:51;3.30;;;3.20;;
10469;SDS011;5282;47.052;15.458;2023-05-07T10:44:27;2.60;;;2.53;;
10469;SDS011;5282;47.052;15.458;2023-05-07T10:52:44;2.37;;;2.17;;
10469;SDS011;5282;47.052;15.458;2023-05-07T10:55:19;2.60;;;2.55;;
10469;SDS011;5282;47.052;15.458;2023-05-07T10:57:48;2.92;;;2.83;;
10469;SDS011;5282;47.052;15.458;2023-05-07T11:03:07;2.15;;;2.10;;
10469;SDS011;5282;47.052;15.458;2023-05-07T11:05:35;2.53;;;2.42;;
10469;SDS011;5282;47.052;15.458;2023-05-07T11:08:02;2.20;;;2.17;;
10469;SDS011;5282;47.052;15.458;2023-05-07T11:10:49;2.45;;;2.22;;
10469;SDS011;5282;47.052;15.458;2023-05-07T11:16:16;2.40;;;2.40;;
10469;SDS011;5282;47.052;15.458;2023-05-07T11:18:47;2.50;;;2.38;;
10469;SDS011;5282;47.052;15.458;2023-05-07T11:24:01;2.45;;;2.45;;
10469;SDS011;5282;47.052;15.458;2023-05-07T11:26:29;2.53;;;2.47;;
10469;SDS011;5282;47.052;15.458;2023-05-07T11:28:59;2.92;;;2.80;;
10469;SDS011;5282;47.052;15.458;2023-05-07T11:31:27;2.35;;;2.35;;
10469;SDS011;5282;47.052;15.458;2023-05-07T11:33:55;2.20;;;2.17;;
10469;SDS011;5282;47.052;15.458;2023-05-07T11:36:23;2.67;;;2.58;;
10469;SDS011;5282;47.052;15.458;2023-05-07T11:38:50;2.30;;;2.30;;
10469;SDS011;5282;47.052;15.458;2023-05-07T11:41:17;2.40;;;2.40;;
10469;SDS011;5282;47.052;15.458;2023-05-07T11:43:55;2.10;;;2.10;;
10469;SDS011;5282;47.052;15.458;2023-05-07T11:46:24;2.22;;;2.20;;
10469;SDS011;5282;47.052;15.458;2023-05-07T11:48:51;2.17;;;2.10;;
10469;SDS011;5282;47.052;15.458;2023-05-07T11:51:19;2.15;;;2.15;;
10469;SDS011;5282;47.052;15.458;2023-05-07T11:53:46;2.15;;;2.15;;
10469;SDS011;5282;47.052;15.458;2023-05-07T11:56:14;2.63;;;2.13;;
10469;SDS011;5282;47.052;15.458;2023-05-07T11:58:43;2.15;;;2.15;;
10469;SDS011;5282;47.052;15.458;2023-05-07T12:01:12;1.90;;;1.90;;
10469;SDS011;5282;47.052;15.458;2023-05-07T12:03:42;2.03;;;2.03;;
10469;SDS011;5282;47.052;15.458;2023-05-07T12:06:11;2.03;;;2.03;;
10469;SDS011;5282;47.052;15.458;2023-05-07T12:08:41;2.28;;;2.28;;
10469;SDS011;5282;47.052;15.458;2023-05-07T12:11:09;2.30;;;2.30;;
10469;SDS011;5282;47.052;15.458;2023-05-07T12:13:39;2.08;;;2.08;;
10469;SDS011;5282;47.052;15.458;2023-05-07T12:16:07;2.78;;;2.67;;
10469;SDS011;5282;47.052;15.458;2023-05-07T12:18:34;1.98;;;1.90;;
10469;SDS011;5282;47.052;15.458;2023-05-07T12:21:05;2.58;;;2.47;;
10469;SDS011;5282;47.052;15.458;2023-05-07T12:23:33;2.90;;;2.70;;
10469;SDS011;5282;47.052;15.458;2023-05-07T12:26:02;2.42;;;2.33;;
10469;SDS011;5282;47.052;15.458;2023-05-07T12:28:29;2.38;;;2.38;;
10469;SDS011;5282;47.052;15.458;2023-05-07T12:30:56;2.10;;;2.10;;
10469;SDS011;5282;47.052;15.458;2023-05-07T12:33:24;2.40;;;2.40;;
10469;SDS011;5282;47.052;15.458;2023-05-07T12:35:53;2.40;;;2.30;;
10469;SDS011;5282;47.052;15.458;2023-05-07T12:38:22;2.17;;;2.17;;
10469;SDS011;5282;47.052;15.458;2023-05-07T12:40:49;2.45;;;2.35;;
10469;SDS011;5282;47.052;15.458;2023-05-07T12:43:20;2.40;;;2.30;;
10469;SDS011;5282;47.052;15.458;2023-05-07T12:45:48;2.83;;;2.75;;
10469;SDS011;5282;47.052;15.458;2023-05-07T12:48:16;1.90;;;1.90;;
10469;SDS011;5282;47.052;15.458;2023-05-07T12:50:43;2.25;;;2.15;;
10469;SDS011;5282;47.052;15.458;2023-05-07T12:53:11;2.10;;;2.10;;
10469;SDS011;5282;47.052;15.458;2023-05-07T12:55:43;2.50;;;2.40;;
10469;SDS011;5282;47.052;15.458;2023-05-07T12:58:15;2.40;;;2.30;;
10469;SDS011;5282;47.052;15.458;2023-05-07T13:00:43;2.20;;;2.05;;
10469;SDS011;5282;47.052;15.458;2023-05-07T13:03:10;2.10;;;2.10;;
10469;SDS011;5282;47.052;15.458;2023-05-07T13:05:38;2.20;;;2.10;;
10469;SDS011;5282;47.052;15.458;2023-05-07T13:08:05;2.30;;;2.20;;
10469;SDS011;5282;47.052;15.458;2023-05-07T13:10:34;2.10;;;2.10;;
10469;SDS011;5282;47.052;15.458;2023-05-07T13:13:02;2.75;;;2.55;;
10469;SDS011;5282;47.052;15.458;2023-05-07T13:15:29;2.47;;;2.47;;
10469;SDS011;5282;47.052;15.458;2023-05-07T13:17:56;2.90;;;2.80;;
10469;SDS011;5282;47.052;15.458;2023-05-07T13:20:23;3.30;;;3.03;;
10469;SDS011;5282;47.052;15.458;2023-05-07T13:22:50;3.33;;;3.00;;
10469;SDS011;5282;47.052;15.458;2023-05-07T13:25:16;4.70;;;3.30;;
10469;SDS011;5282;47.052;15.458;2023-05-07T13:27:43;3.77;;;3.47;;
10469;SDS011;5282;47.052;15.458;2023-05-07T13:30:12;3.27;;;3.13;;
10469;SDS011;5282;47.052;15.458;2023-05-07T13:32:39;4.07;;;3.70;;
10469;SDS011;5282;47.052;15.458;2023-05-07T13:35:06;4.10;;;3.90;;
10469;SDS011;5282;47.052;15.458;2023-05-07T13:37:33;3.97;;;3.67;;
10469;SDS011;5282;47.052;15.458;2023-05-07T13:40:00;3.93;;;3.83;;
10469;SDS011;5282;47.052;15.458;2023-05-07T13:42:27;4.20;;;4.00;;
10469;SDS011;5282;47.052;15.458;2023-05-07T13:44:54;5.20;;;4.87;;
10469;SDS011;5282;47.052;15.458;2023-05-07T13:47:23;5.30;;;5.03;;
10469;SDS011;5282;47.052;15.458;2023-05-07T13:49:50;7.93;;;5.30;;
10469;SDS011;5282;47.052;15.458;2023-05-07T13:52:16;5.70;;;5.50;;
10469;SDS011;5282;47.052;15.458;2023-05-07T13:54:44;5.57;;;5.27;;
10469;SDS011;5282;47.052;15.458;2023-05-07T13:57:10;6.70;;;6.37;;
10469;SDS011;5282;47.052;15.458;2023-05-07T13:59:37;7.17;;;6.70;;
10469;SDS011;5282;47.052;15.458;2023-05-07T14:02:04;7.57;;;7.10;;
10469;SDS011;5282;47.052;15.458;2023-05-07T14:04:32;8.13;;;7.63;;
10469;SDS011;5282;47.052;15.458;2023-05-07T14:06:59;8.73;;;8.23;;
10469;SDS011;5282;47.052;15.458;2023-05-07T14:09:26;8.67;;;8.07;;
10469;SDS011;5282;47.052;15.458;2023-05-07T14:11:53;8.80;;;8.23;;
10469;SDS011;5282;47.052;15.458;2023-05-07T14:14:20;8.87;;;8.27;;
10469;SDS011;5282;47.052;15.458;2023-05-07T14:16:46;9.03;;;8.53;;
10469;SDS011;5282;47.052;15.458;2023-05-07T14:19:19;9.17;;;8.67;;
10469;SDS011;5282;47.052;15.458;2023-05-07T14:21:49;10.10;;;9.40;;
10469;SDS011;5282;47.052;15.458;2023-05-07T14:24:16;9.67;;;9.17;;
10469;SDS011;5282;47.052;15.458;2023-05-07T14:26:42;10.00;;;9.40;;
10469;SDS011;5282;47.052;15.458;2023-05-07T14:29:10;9.47;;;8.97;;
10469;SDS011;5282;47.052;15.458;2023-05-07T14:31:37;9.47;;;8.87;;
10469;SDS011;5282;47.052;15.458;2023-05-07T14:34:04;8.70;;;8.30;;
10469;SDS011;5282;47.052;15.458;2023-05-07T14:36:30;9.83;;;9.20;;
10469;SDS011;5282;47.052;15.458;2023-05-07T14:38:59;8.90;;;8.47;;
10469;SDS011;5282;47.052;15.458;2023-05-07T14:41:26;8.87;;;8.40;;
10469;SDS011;5282;47.052;15.458;2023-05-07T14:43:52;8.30;;;7.80;;
10469;SDS011;5282;47.052;15.458;2023-05-07T14:46:19;8.43;;;8.03;;
10469;SDS011;5282;47.052;15.458;2023-05-07T14:48:46;9.00;;;8.60;;
10469;SDS011;5282;47.052;15.458;2023-05-07T14:51:13;8.77;;;8.27;;
10469;SDS011;5282;47.052;15.458;2023-05-07T14:53:42;9.00;;;8.50;;
10469;SDS011;5282;47.052;15.458;2023-05-07T14:56:11;8.77;;;8.37;;
10469;SDS011;5282;47.052;15.458;2023-05-07T14:58:38;9.23;;;8.73;;
10469;SDS011;5282;47.052;15.458;2023-05-07T15:01:07;8.53;;;8.10;;
10469;SDS011;5282;47.052;15.458;2023-05-07T15:03:35;9.50;;;9.00;;
10469;SDS011;5282;47.052;15.458;2023-05-07T15:06:02;9.93;;;9.33;;
10469;SDS011;5282;47.052;15.458;2023-05-07T15:08:29;10.30;;;9.50;;